sensor_id;sensor_type;location;lat;lon;timestamp;temperature;humidity
5846;DHT22;2949;50.778;7.094;2022-09-20T00:03:44;11.30;99.90
5846;DHT22;2949;50.778;7.094;2022-09-20T00:06:17;11.30;99.90
5846;DHT22;2949;50.778;7.094;2022-09-20T00:08:44;11.40;99.90
5846;DHT22;2949;50.778;7.094;2022-09-20T00:11:13;11.40;99.90
5846;DHT22;2949;50.778;7.094;2022-09-20T00:13:40;11.40;99.90
5846;DHT22;2949;50.778;7.094;2022-09-20T00:16:08;11.40;99.90
5846;DHT22;2949;50.778;7.094;2022-09-20T00:18:34;11.40;99.90
5846;DHT22;2949;50.778;7.094;2022-09-20T00:21:00;11.30;99.90
5846;DHT22;2949;50.778;7.094;2022-09-20T00:23:25;11.30;99.90
5846;DHT22;2949;50.778;7.094;2022-09-20T00:25:59;11.20;99.90
5846;DHT22;2949;50.778;7.094;2022-09-20T00:28:25;11.10;99.90
5846;DHT22;2949;50.778;7.094;2022-09-20T00:30:53;11.00;99.90
5846;DHT22;2949;50.778;7.094;2022-09-20T00:33:19;11.00;99.90
5846;DHT22;2949;50.778;7.094;2022-09-20T00:35:46;10.90;99.90
5846;DHT22;2949;50.778;7.094;2022-09-20T00:38:12;10.80;99.90
5846;DHT22;2949;50.778;7.094;2022-09-20T00:40:38;10.70;99.90
5846;DHT22;2949;50.778;7.094;2022-09-20T00:43:04;10.70;99.90
5846;DHT22;2949;50.778;7.094;2022-09-20T00:45:30;10.60;99.90
5846;DHT22;2949;50.778;7.094;2022-09-20T00:50:36;10.50;99.90
5846;DHT22;2949;50.778;7.094;2022-09-20T00:53:27;10.50;99.90
5846;DHT22;2949;50.778;7.094;2022-09-20T00:56:03;10.50;99.90
5846;DHT22;2949;50.778;7.094;2022-09-20T00:58:33;10.50;99.90
5846;DHT22;2949;50.778;7.094;2022-09-20T01:00:59;10.50;99.90
5846;DHT22;2949;50.778;7.094;2022-09-20T01:03:27;10.60;99.90
5846;DHT22;2949;50.778;7.094;2022-09-20T01:05:54;10.60;99.90
5846;DHT22;2949;50.778;7.094;2022-09-20T01:08:21;10.70;99.90
5846;DHT22;2949;50.778;7.094;2022-09-20T01:10:50;10.80;99.90
5846;DHT22;2949;50.778;7.094;2022-09-20T01:13:15;10.80;99.90
5846;DHT22;2949;50.778;7.094;2022-09-20T01:15:42;10.90;99.90
5846;DHT22;2949;50.778;7.094;2022-09-20T01:18:09;10.90;99.90
5846;DHT22;2949;50.778;7.094;2022-09-20T01:20:38;11.00;99.90
5846;DHT22;2949;50.778;7.094;2022-09-20T01:23:40;11.00;99.90
5846;DHT22;2949;50.778;7.094;2022-09-20T01:31:51;11.10;99.90
5846;DHT22;2949;50.778;7.094;2022-09-20T01:34:32;11.10;99.90
5846;DHT22;2949;50.778;7.094;2022-09-20T01:40:14;11.10;99.90
5846;DHT22;2949;50.778;7.094;2022-09-20T01:42:52;11.10;99.90
5846;DHT22;2949;50.778;7.094;2022-09-20T01:45:28;11.10;99.90
5846;DHT22;2949;50.778;7.094;2022-09-20T01:50:37;11.00;99.90
5846;DHT22;2949;50.778;7.094;2022-09-20T02:01:37;11.00;99.90
5846;DHT22;2949;50.778;7.094;2022-09-20T02:04:27;11.00;99.90
5846;DHT22;2949;50.778;7.094;2022-09-20T02:07:17;11.10;99.90
5846;DHT22;2949;50.778;7.094;2022-09-20T02:09:53;11.10;99.90
5846;DHT22;2949;50.778;7.094;2022-09-20T02:18:08;11.20;99.90
5846;DHT22;2949;50.778;7.094;2022-09-20T02:20:55;11.20;99.90
5846;DHT22;2949;50.778;7.094;2022-09-20T02:26:19;11.30;99.90
5846;DHT22;2949;50.778;7.094;2022-09-20T02:28:51;11.30;99.90
5846;DHT22;2949;50.778;7.094;2022-09-20T02:31:51;11.20;99.90
5846;DHT22;2949;50.778;7.094;2022-09-20T02:34:35;11.30;99.90
5846;DHT22;2949;50.778;7.094;2022-09-20T02:37:33;11.20;99.90
5846;DHT22;2949;50.778;7.094;2022-09-20T02:46:09;11.10;99.90
5846;DHT22;2949;50.778;7.094;2022-09-20T02:48:54;11.10;99.90
5846;DHT22;2949;50.778;7.094;2022-09-20T02:51:28;11.10;99.90
5846;DHT22;2949;50.778;7.094;2022-09-20T02:54:05;11.10;99.90
5846;DHT22;2949;50.778;7.094;2022-09-20T02:59:45;11.00;99.90
5846;DHT22;2949;50.778;7.094;2022-09-20T03:02:18;11.00;99.90
5846;DHT22;2949;50.778;7.094;2022-09-20T03:08:30;11.00;99.90
5846;DHT22;2949;50.778;7.094;2022-09-20T03:11:11;11.10;99.90
5846;DHT22;2949;50.778;7.094;2022-09-20T03:14:33;11.10;99.90
5846;DHT22;2949;50.778;7.094;2022-09-20T03:17:09;11.10;99.90
5846;DHT22;2949;50.778;7.094;2022-09-20T03:23:19;11.10;99.90
5846;DHT22;2949;50.778;7.094;2022-09-20T03:26:00;11.10;99.90
5846;DHT22;2949;50.778;7.094;2022-09-20T03:31:57;11.00;99.90
5846;DHT22;2949;50.778;7.094;2022-09-20T03:37:53;10.80;99.90
5846;DHT22;2949;50.778;7.094;2022-09-20T03:40:22;10.70;99.90
5846;DHT22;2949;50.778;7.094;2022-09-20T03:42:53;10.60;99.90
5846;DHT22;2949;50.778;7.094;2022-09-20T03:46:46;10.60;99.90
5846;DHT22;2949;50.778;7.094;2022-09-20T03:51:44;10.60;99.90
5846;DHT22;2949;50.778;7.094;2022-09-20T03:59:46;10.80;99.90
5846;DHT22;2949;50.778;7.094;2022-09-20T04:05:49;10.80;99.90
5846;DHT22;2949;50.778;7.094;2022-09-20T04:08:47;10.90;99.90
5846;DHT22;2949;50.778;7.094;2022-09-20T04:14:29;10.90;99.90
5846;DHT22;2949;50.778;7.094;2022-09-20T04:20:01;10.90;99.90
5846;DHT22;2949;50.778;7.094;2022-09-20T04:22:28;10.90;99.90
5846;DHT22;2949;50.778;7.094;2022-09-20T04:27:50;10.80;99.90
5846;DHT22;2949;50.778;7.094;2022-09-20T04:30:24;10.80;99.90
5846;DHT22;2949;50.778;7.094;2022-09-20T04:32:59;10.80;99.90
5846;DHT22;2949;50.778;7.094;2022-09-20T04:38:19;10.80;99.90
5846;DHT22;2949;50.778;7.094;2022-09-20T04:44:29;10.80;99.90
5846;DHT22;2949;50.778;7.094;2022-09-20T04:53:10;10.90;99.90
5846;DHT22;2949;50.778;7.094;2022-09-20T04:58:46;10.80;99.90
5846;DHT22;2949;50.778;7.094;2022-09-20T05:12:30;10.80;99.90
5846;DHT22;2949;50.778;7.094;2022-09-20T05:15:05;10.80;99.90
5846;DHT22;2949;50.778;7.094;2022-09-20T05:29:06;11.00;99.90
5846;DHT22;2949;50.778;7.094;2022-09-20T05:31:50;11.00;99.90
5846;DHT22;2949;50.778;7.094;2022-09-20T05:34:38;11.10;99.90
5846;DHT22;2949;50.778;7.094;2022-09-20T05:37:21;11.10;99.90
5846;DHT22;2949;50.778;7.094;2022-09-20T05:40:44;11.10;99.90
5846;DHT22;2949;50.778;7.094;2022-09-20T05:42:45;11.20;99.90
5846;DHT22;2949;50.778;7.094;2022-09-20T05:48:09;11.30;99.90
5846;DHT22;2949;50.778;7.094;2022-09-20T05:50:59;11.30;99.90
5846;DHT22;2949;50.778;7.094;2022-09-20T05:53:45;11.40;99.90
5846;DHT22;2949;50.778;7.094;2022-09-20T05:58:49;11.50;99.90
5846;DHT22;2949;50.778;7.094;2022-09-20T06:01:26;11.60;99.90
5846;DHT22;2949;50.778;7.094;2022-09-20T06:04:20;11.70;99.90
5846;DHT22;2949;50.778;7.094;2022-09-20T06:10:25;11.80;99.90
5846;DHT22;2949;50.778;7.094;2022-09-20T06:15:59;11.90;99.90
5846;DHT22;2949;50.778;7.094;2022-09-20T06:21:41;12.00;99.90
5846;DHT22;2949;50.778;7.094;2022-09-20T06:24:43;12.00;99.90
5846;DHT22;2949;50.778;7.094;2022-09-20T06:27:15;12.10;99.90
5846;DHT22;2949;50.778;7.094;2022-09-20T06:29:48;12.20;99.90
5846;DHT22;2949;50.778;7.094;2022-09-20T06:32:16;12.30;99.90
5846;DHT22;2949;50.778;7.094;2022-09-20T06:34:42;12.50;99.90
5846;DHT22;2949;50.778;7.094;2022-09-20T06:37:30;12.60;99.90
5846;DHT22;2949;50.778;7.094;2022-09-20T06:43:12;12.90;99.90
5846;DHT22;2949;50.778;7.094;2022-09-20T06:45:39;13.00;99.90
5846;DHT22;2949;50.778;7.094;2022-09-20T06:48:06;13.20;99.90
5846;DHT22;2949;50.778;7.094;2022-09-20T06:50:33;13.40;99.90
5846;DHT22;2949;50.778;7.094;2022-09-20T06:53:00;13.60;99.90
5846;DHT22;2949;50.778;7.094;2022-09-20T06:55:30;13.80;99.90
5846;DHT22;2949;50.778;7.094;2022-09-20T06:57:56;13.90;99.90
5846;DHT22;2949;50.778;7.094;2022-09-20T07:00:22;13.80;99.90
5846;DHT22;2949;50.778;7.094;2022-09-20T07:02:47;13.80;99.90
5846;DHT22;2949;50.778;7.094;2022-09-20T07:05:17;13.70;99.90
5846;DHT22;2949;50.778;7.094;2022-09-20T07:07:45;13.60;99.90
5846;DHT22;2949;50.778;7.094;2022-09-20T07:10:12;13.50;99.90
5846;DHT22;2949;50.778;7.094;2022-09-20T07:12:39;13.60;99.90
5846;DHT22;2949;50.778;7.094;2022-09-20T07:15:06;15.90;99.90
5846;DHT22;2949;50.778;7.094;2022-09-20T07:17:32;17.50;99.90
5846;DHT22;2949;50.778;7.094;2022-09-20T07:19:58;17.80;99.90
5846;DHT22;2949;50.778;7.094;2022-09-20T07:22:24;17.80;99.90
5846;DHT22;2949;50.778;7.094;2022-09-20T07:24:50;18.00;99.90
5846;DHT22;2949;50.778;7.094;2022-09-20T07:27:15;19.40;99.90
5846;DHT22;2949;50.778;7.094;2022-09-20T07:29:41;21.60;99.90
5846;DHT22;2949;50.778;7.094;2022-09-20T07:32:06;23.30;99.90
5846;DHT22;2949;50.778;7.094;2022-09-20T07:34:32;23.90;99.90
5846;DHT22;2949;50.778;7.094;2022-09-20T07:36:58;25.10;99.90
5846;DHT22;2949;50.778;7.094;2022-09-20T07:39:24;25.50;99.90
5846;DHT22;2949;50.778;7.094;2022-09-20T07:41:50;26.30;96.20
5846;DHT22;2949;50.778;7.094;2022-09-20T07:44:16;25.90;96.20
5846;DHT22;2949;50.778;7.094;2022-09-20T07:46:50;25.60;96.60
5846;DHT22;2949;50.778;7.094;2022-09-20T07:49:16;26.80;93.70
5846;DHT22;2949;50.778;7.094;2022-09-20T07:51:42;26.40;92.70
5846;DHT22;2949;50.778;7.094;2022-09-20T07:54:07;24.70;94.00
5846;DHT22;2949;50.778;7.094;2022-09-20T07:56:33;23.00;97.20
5846;DHT22;2949;50.778;7.094;2022-09-20T07:58:59;21.60;99.90
5846;DHT22;2949;50.778;7.094;2022-09-20T08:01:25;20.60;99.90
5846;DHT22;2949;50.778;7.094;2022-09-20T08:03:50;19.90;99.90
5846;DHT22;2949;50.778;7.094;2022-09-20T08:06:16;19.10;99.90
5846;DHT22;2949;50.778;7.094;2022-09-20T08:08:43;18.50;99.90
5846;DHT22;2949;50.778;7.094;2022-09-20T08:11:20;18.00;99.90
5846;DHT22;2949;50.778;7.094;2022-09-20T08:13:53;17.20;99.90
5846;DHT22;2949;50.778;7.094;2022-09-20T08:16:19;16.90;99.90
5846;DHT22;2949;50.778;7.094;2022-09-20T08:18:50;16.60;99.90
5846;DHT22;2949;50.778;7.094;2022-09-20T08:21:16;16.50;99.90
5846;DHT22;2949;50.778;7.094;2022-09-20T08:23:43;16.50;99.90
5846;DHT22;2949;50.778;7.094;2022-09-20T08:26:11;16.50;99.90
5846;DHT22;2949;50.778;7.094;2022-09-20T08:28:38;16.50;99.90
5846;DHT22;2949;50.778;7.094;2022-09-20T08:31:12;16.20;99.90
5846;DHT22;2949;50.778;7.094;2022-09-20T08:33:38;16.00;99.90
5846;DHT22;2949;50.778;7.094;2022-09-20T08:36:05;15.80;99.90
5846;DHT22;2949;50.778;7.094;2022-09-20T08:38:32;15.50;99.90
5846;DHT22;2949;50.778;7.094;2022-09-20T08:41:11;15.30;99.90
5846;DHT22;2949;50.778;7.094;2022-09-20T08:43:44;15.10;99.90
5846;DHT22;2949;50.778;7.094;2022-09-20T08:46:14;15.10;99.90
5846;DHT22;2949;50.778;7.094;2022-09-20T08:48:40;15.20;99.90
5846;DHT22;2949;50.778;7.094;2022-09-20T08:51:11;15.20;99.90
5846;DHT22;2949;50.778;7.094;2022-09-20T08:53:44;15.30;99.90
5846;DHT22;2949;50.778;7.094;2022-09-20T08:56:10;16.50;99.90
5846;DHT22;2949;50.778;7.094;2022-09-20T08:58:36;16.80;99.90
5846;DHT22;2949;50.778;7.094;2022-09-20T09:01:04;17.00;99.90
5846;DHT22;2949;50.778;7.094;2022-09-20T09:03:31;17.30;99.90
5846;DHT22;2949;50.778;7.094;2022-09-20T09:05:57;18.60;99.90
5846;DHT22;2949;50.778;7.094;2022-09-20T09:08:28;19.90;99.90
5846;DHT22;2949;50.778;7.094;2022-09-20T09:11:02;21.30;99.90
5846;DHT22;2949;50.778;7.094;2022-09-20T09:14:04;23.80;99.90
5846;DHT22;2949;50.778;7.094;2022-09-20T09:16:51;26.20;91.60
5846;DHT22;2949;50.778;7.094;2022-09-20T09:19:29;27.90;82.30
5846;DHT22;2949;50.778;7.094;2022-09-20T09:22:00;29.00;73.40
5846;DHT22;2949;50.778;7.094;2022-09-20T09:24:27;29.70;69.90
5846;DHT22;2949;50.778;7.094;2022-09-20T09:27:13;28.50;65.20
5846;DHT22;2949;50.778;7.094;2022-09-20T09:30:18;26.20;70.20
5846;DHT22;2949;50.778;7.094;2022-09-20T09:32:44;23.50;78.80
5846;DHT22;2949;50.778;7.094;2022-09-20T09:35:36;21.50;84.90
5846;DHT22;2949;50.778;7.094;2022-09-20T09:38:01;19.90;93.50
5846;DHT22;2949;50.778;7.094;2022-09-20T09:40:28;19.10;98.10
5846;DHT22;2949;50.778;7.094;2022-09-20T09:42:58;18.70;99.90
5846;DHT22;2949;50.778;7.094;2022-09-20T09:45:31;18.80;99.90
5846;DHT22;2949;50.778;7.094;2022-09-20T09:47:59;19.90;99.90
5846;DHT22;2949;50.778;7.094;2022-09-20T09:50:30;20.90;93.90
5846;DHT22;2949;50.778;7.094;2022-09-20T09:53:10;20.60;95.00
5846;DHT22;2949;50.778;7.094;2022-09-20T10:01:09;19.10;97.80
5846;DHT22;2949;50.778;7.094;2022-09-20T10:04:01;18.70;99.80
5846;DHT22;2949;50.778;7.094;2022-09-20T10:06:45;18.40;99.90
5846;DHT22;2949;50.778;7.094;2022-09-20T10:09:29;18.20;99.90
5846;DHT22;2949;50.778;7.094;2022-09-20T10:14:51;18.10;99.90
5846;DHT22;2949;50.778;7.094;2022-09-20T10:17:49;18.00;99.90
5846;DHT22;2949;50.778;7.094;2022-09-20T10:26:05;17.10;99.90
5846;DHT22;2949;50.778;7.094;2022-09-20T10:31:41;16.50;99.90
5846;DHT22;2949;50.778;7.094;2022-09-20T10:36:57;16.40;99.90
5846;DHT22;2949;50.778;7.094;2022-09-20T10:48:07;16.30;99.90
5846;DHT22;2949;50.778;7.094;2022-09-20T10:55:55;16.40;99.90
5846;DHT22;2949;50.778;7.094;2022-09-20T11:01:45;16.10;99.90
5846;DHT22;2949;50.778;7.094;2022-09-20T11:09:58;15.90;99.90
5846;DHT22;2949;50.778;7.094;2022-09-20T11:15:43;15.90;99.90
5846;DHT22;2949;50.778;7.094;2022-09-20T11:18:55;16.10;99.90
5846;DHT22;2949;50.778;7.094;2022-09-20T11:24:09;16.50;99.90
5846;DHT22;2949;50.778;7.094;2022-09-20T11:26:44;16.80;99.90
5846;DHT22;2949;50.778;7.094;2022-09-20T11:29:46;17.10;99.90
5846;DHT22;2949;50.778;7.094;2022-09-20T11:32:38;17.60;99.90
5846;DHT22;2949;50.778;7.094;2022-09-20T11:35:33;18.30;99.90
5846;DHT22;2949;50.778;7.094;2022-09-20T11:38:12;18.80;99.90
5846;DHT22;2949;50.778;7.094;2022-09-20T11:41:28;19.10;99.90
5846;DHT22;2949;50.778;7.094;2022-09-20T11:43:30;19.20;99.90
5846;DHT22;2949;50.778;7.094;2022-09-20T11:46:02;19.30;99.90
5846;DHT22;2949;50.778;7.094;2022-09-20T11:48:35;19.30;99.90
5846;DHT22;2949;50.778;7.094;2022-09-20T11:51:28;18.90;99.90
5846;DHT22;2949;50.778;7.094;2022-09-20T11:54:29;18.30;99.90
5846;DHT22;2949;50.778;7.094;2022-09-20T11:56:54;17.70;99.90
5846;DHT22;2949;50.778;7.094;2022-09-20T11:59:34;17.30;99.90
5846;DHT22;2949;50.778;7.094;2022-09-20T12:02:04;17.10;99.90
5846;DHT22;2949;50.778;7.094;2022-09-20T12:04:37;16.90;99.90
5846;DHT22;2949;50.778;7.094;2022-09-20T12:07:22;16.80;99.90
5846;DHT22;2949;50.778;7.094;2022-09-20T12:09:57;16.60;99.90
5846;DHT22;2949;50.778;7.094;2022-09-20T12:12:42;16.50;99.90
5846;DHT22;2949;50.778;7.094;2022-09-20T12:15:31;16.40;99.90
5846;DHT22;2949;50.778;7.094;2022-09-20T12:26:07;16.30;99.90
5846;DHT22;2949;50.778;7.094;2022-09-20T12:28:37;16.30;99.90
5846;DHT22;2949;50.778;7.094;2022-09-20T12:39:27;16.10;99.90
5846;DHT22;2949;50.778;7.094;2022-09-20T12:41:54;16.20;99.90
5846;DHT22;2949;50.778;7.094;2022-09-20T12:44:36;16.20;99.90
5846;DHT22;2949;50.778;7.094;2022-09-20T12:47:19;16.20;99.90
5846;DHT22;2949;50.778;7.094;2022-09-20T13:03:34;15.80;99.90
5846;DHT22;2949;50.778;7.094;2022-09-20T13:14:11;16.40;99.90
5846;DHT22;2949;50.778;7.094;2022-09-20T13:19:45;16.70;99.90
5846;DHT22;2949;50.778;7.094;2022-09-20T13:25:12;16.90;99.90
5846;DHT22;2949;50.778;7.094;2022-09-20T13:28:01;17.10;99.90
5846;DHT22;2949;50.778;7.094;2022-09-20T13:30:28;17.30;99.90
5846;DHT22;2949;50.778;7.094;2022-09-20T13:33:14;17.40;99.90
5846;DHT22;2949;50.778;7.094;2022-09-20T13:35:43;17.30;99.90
5846;DHT22;2949;50.778;7.094;2022-09-20T13:38:11;17.00;99.90
5846;DHT22;2949;50.778;7.094;2022-09-20T13:40:42;16.70;99.90
5846;DHT22;2949;50.778;7.094;2022-09-20T13:43:27;16.40;99.90
5846;DHT22;2949;50.778;7.094;2022-09-20T13:45:59;16.20;99.90
5846;DHT22;2949;50.778;7.094;2022-09-20T13:48:28;16.10;99.90
5846;DHT22;2949;50.778;7.094;2022-09-20T13:50:55;15.90;99.90
5846;DHT22;2949;50.778;7.094;2022-09-20T13:53:22;15.90;99.90
5846;DHT22;2949;50.778;7.094;2022-09-20T13:55:49;15.90;99.90
5846;DHT22;2949;50.778;7.094;2022-09-20T14:00:53;16.00;99.90
5846;DHT22;2949;50.778;7.094;2022-09-20T14:03:20;16.00;99.90
5846;DHT22;2949;50.778;7.094;2022-09-20T14:05:52;16.00;99.90
5846;DHT22;2949;50.778;7.094;2022-09-20T14:08:25;16.00;99.90
5846;DHT22;2949;50.778;7.094;2022-09-20T14:11:12;16.00;99.90
5846;DHT22;2949;50.778;7.094;2022-09-20T14:13:42;15.90;99.90
5846;DHT22;2949;50.778;7.094;2022-09-20T14:16:09;15.80;99.90
5846;DHT22;2949;50.778;7.094;2022-09-20T14:18:35;15.80;99.90
5846;DHT22;2949;50.778;7.094;2022-09-20T14:21:02;15.80;99.90
5846;DHT22;2949;50.778;7.094;2022-09-20T14:23:30;15.80;99.90
5846;DHT22;2949;50.778;7.094;2022-09-20T14:28:44;16.10;99.90
5846;DHT22;2949;50.778;7.094;2022-09-20T14:31:19;16.30;99.90
5846;DHT22;2949;50.778;7.094;2022-09-20T14:33:49;16.50;99.90
5846;DHT22;2949;50.778;7.094;2022-09-20T14:36:19;16.50;99.90
5846;DHT22;2949;50.778;7.094;2022-09-20T14:38:47;16.40;99.90
5846;DHT22;2949;50.778;7.094;2022-09-20T14:41:27;16.30;99.90
5846;DHT22;2949;50.778;7.094;2022-09-20T14:43:58;16.30;99.90
5846;DHT22;2949;50.778;7.094;2022-09-20T14:46:35;16.30;99.90
5846;DHT22;2949;50.778;7.094;2022-09-20T14:49:31;16.10;99.90
5846;DHT22;2949;50.778;7.094;2022-09-20T14:55:21;15.80;99.90
5846;DHT22;2949;50.778;7.094;2022-09-20T14:57:55;15.80;99.90
5846;DHT22;2949;50.778;7.094;2022-09-20T15:00:21;15.80;99.90
5846;DHT22;2949;50.778;7.094;2022-09-20T15:02:46;15.70;99.90
5846;DHT22;2949;50.778;7.094;2022-09-20T15:05:21;15.70;99.90
5846;DHT22;2949;50.778;7.094;2022-09-20T15:07:54;15.60;99.90
5846;DHT22;2949;50.778;7.094;2022-09-20T15:10:20;15.70;99.90
5846;DHT22;2949;50.778;7.094;2022-09-20T15:12:46;15.70;99.90
5846;DHT22;2949;50.778;7.094;2022-09-20T15:15:13;15.70;99.90
5846;DHT22;2949;50.778;7.094;2022-09-20T15:17:43;15.60;99.90
5846;DHT22;2949;50.778;7.094;2022-09-20T15:20:17;15.70;99.90
5846;DHT22;2949;50.778;7.094;2022-09-20T15:22:48;15.90;99.90
5846;DHT22;2949;50.778;7.094;2022-09-20T15:25:16;16.20;99.90
5846;DHT22;2949;50.778;7.094;2022-09-20T15:27:44;16.30;99.90
5846;DHT22;2949;50.778;7.094;2022-09-20T15:30:12;16.30;99.90
5846;DHT22;2949;50.778;7.094;2022-09-20T15:32:38;16.30;99.90
5846;DHT22;2949;50.778;7.094;2022-09-20T15:35:04;16.20;99.90
5846;DHT22;2949;50.778;7.094;2022-09-20T15:37:30;16.10;99.90
5846;DHT22;2949;50.778;7.094;2022-09-20T15:39:56;16.00;99.90
5846;DHT22;2949;50.778;7.094;2022-09-20T15:42:21;16.00;99.90
5846;DHT22;2949;50.778;7.094;2022-09-20T15:44:48;16.00;99.90
5846;DHT22;2949;50.778;7.094;2022-09-20T15:47:17;16.00;99.90
5846;DHT22;2949;50.778;7.094;2022-09-20T15:49:42;15.90;99.90
5846;DHT22;2949;50.778;7.094;2022-09-20T15:52:11;15.90;99.90
5846;DHT22;2949;50.778;7.094;2022-09-20T15:54:37;15.80;99.90
5846;DHT22;2949;50.778;7.094;2022-09-20T15:57:03;15.70;99.90
5846;DHT22;2949;50.778;7.094;2022-09-20T15:59:29;15.50;99.90
5846;DHT22;2949;50.778;7.094;2022-09-20T16:01:54;15.30;99.90
5846;DHT22;2949;50.778;7.094;2022-09-20T16:04:20;15.10;99.90
5846;DHT22;2949;50.778;7.094;2022-09-20T16:06:47;14.90;99.90
5846;DHT22;2949;50.778;7.094;2022-09-20T16:09:14;14.80;99.90
5846;DHT22;2949;50.778;7.094;2022-09-20T16:11:39;14.60;99.90
5846;DHT22;2949;50.778;7.094;2022-09-20T16:14:05;14.50;99.90
5846;DHT22;2949;50.778;7.094;2022-09-20T16:16:32;14.50;99.90
5846;DHT22;2949;50.778;7.094;2022-09-20T16:18:58;14.50;99.90
5846;DHT22;2949;50.778;7.094;2022-09-20T16:21:49;14.50;99.90
5846;DHT22;2949;50.778;7.094;2022-09-20T16:24:18;14.50;99.90
5846;DHT22;2949;50.778;7.094;2022-09-20T16:26:44;14.50;99.90
5846;DHT22;2949;50.778;7.094;2022-09-20T16:29:11;14.60;99.90
5846;DHT22;2949;50.778;7.094;2022-09-20T16:34:17;14.60;99.90
5846;DHT22;2949;50.778;7.094;2022-09-20T16:36:46;14.60;99.90
5846;DHT22;2949;50.778;7.094;2022-09-20T16:39:14;14.50;99.90
5846;DHT22;2949;50.778;7.094;2022-09-20T16:41:41;14.50;99.90
5846;DHT22;2949;50.778;7.094;2022-09-20T16:44:07;14.50;99.90
5846;DHT22;2949;50.778;7.094;2022-09-20T16:46:33;14.50;99.90
5846;DHT22;2949;50.778;7.094;2022-09-20T16:49:02;14.50;99.90
5846;DHT22;2949;50.778;7.094;2022-09-20T16:51:30;14.50;99.90
5846;DHT22;2949;50.778;7.094;2022-09-20T16:53:56;14.50;99.90
5846;DHT22;2949;50.778;7.094;2022-09-20T16:56:24;14.50;99.90
5846;DHT22;2949;50.778;7.094;2022-09-20T16:58:51;14.40;99.90
5846;DHT22;2949;50.778;7.094;2022-09-20T17:01:17;14.50;99.90
5846;DHT22;2949;50.778;7.094;2022-09-20T17:03:43;14.40;99.90
5846;DHT22;2949;50.778;7.094;2022-09-20T17:06:09;14.30;99.90
5846;DHT22;2949;50.778;7.094;2022-09-20T17:08:36;14.30;99.90
5846;DHT22;2949;50.778;7.094;2022-09-20T17:11:07;14.30;99.90
5846;DHT22;2949;50.778;7.094;2022-09-20T17:13:34;14.20;99.90
5846;DHT22;2949;50.778;7.094;2022-09-20T17:16:05;14.20;99.90
5846;DHT22;2949;50.778;7.094;2022-09-20T17:18:31;14.20;99.90
5846;DHT22;2949;50.778;7.094;2022-09-20T17:21:07;14.10;99.90
5846;DHT22;2949;50.778;7.094;2022-09-20T17:23:33;14.10;99.90
5846;DHT22;2949;50.778;7.094;2022-09-20T17:26:04;14.00;99.90
5846;DHT22;2949;50.778;7.094;2022-09-20T17:28:42;14.00;99.90
5846;DHT22;2949;50.778;7.094;2022-09-20T17:31:13;14.00;99.90
5846;DHT22;2949;50.778;7.094;2022-09-20T17:33:39;13.90;99.90
5846;DHT22;2949;50.778;7.094;2022-09-20T17:36:07;13.90;99.90
5846;DHT22;2949;50.778;7.094;2022-09-20T17:38:34;13.80;99.90
5846;DHT22;2949;50.778;7.094;2022-09-20T17:41:03;13.80;99.90
5846;DHT22;2949;50.778;7.094;2022-09-20T17:43:30;13.80;99.90
5846;DHT22;2949;50.778;7.094;2022-09-20T17:46:06;13.80;99.90
5846;DHT22;2949;50.778;7.094;2022-09-20T17:48:32;13.80;99.90
5846;DHT22;2949;50.778;7.094;2022-09-20T17:51:01;13.80;99.90
5846;DHT22;2949;50.778;7.094;2022-09-20T17:53:29;13.70;99.90
5846;DHT22;2949;50.778;7.094;2022-09-20T17:55:55;13.70;99.90
5846;DHT22;2949;50.778;7.094;2022-09-20T17:58:22;13.70;99.90
5846;DHT22;2949;50.778;7.094;2022-09-20T18:00:47;13.60;99.90
5846;DHT22;2949;50.778;7.094;2022-09-20T18:03:14;13.50;99.90
5846;DHT22;2949;50.778;7.094;2022-09-20T18:05:39;13.50;99.90
5846;DHT22;2949;50.778;7.094;2022-09-20T18:08:05;13.40;99.90
5846;DHT22;2949;50.778;7.094;2022-09-20T18:10:31;13.40;99.90
5846;DHT22;2949;50.778;7.094;2022-09-20T18:12:56;13.30;99.90
5846;DHT22;2949;50.778;7.094;2022-09-20T18:15:22;13.30;99.90
5846;DHT22;2949;50.778;7.094;2022-09-20T18:17:50;13.20;99.90
5846;DHT22;2949;50.778;7.094;2022-09-20T18:20:16;13.10;99.90
5846;DHT22;2949;50.778;7.094;2022-09-20T18:22:41;13.10;99.90
5846;DHT22;2949;50.778;7.094;2022-09-20T18:25:07;13.00;99.90
5846;DHT22;2949;50.778;7.094;2022-09-20T18:27:33;13.10;99.90
5846;DHT22;2949;50.778;7.094;2022-09-20T18:29:59;13.10;99.90
5846;DHT22;2949;50.778;7.094;2022-09-20T18:32:25;13.10;99.90
5846;DHT22;2949;50.778;7.094;2022-09-20T18:34:54;13.20;99.90
5846;DHT22;2949;50.778;7.094;2022-09-20T18:37:20;13.20;99.90
5846;DHT22;2949;50.778;7.094;2022-09-20T18:39:45;13.20;99.90
5846;DHT22;2949;50.778;7.094;2022-09-20T18:42:11;13.20;99.90
5846;DHT22;2949;50.778;7.094;2022-09-20T18:44:37;13.10;99.90
5846;DHT22;2949;50.778;7.094;2022-09-20T18:47:03;13.00;99.90
5846;DHT22;2949;50.778;7.094;2022-09-20T18:49:30;12.90;99.90
5846;DHT22;2949;50.778;7.094;2022-09-20T18:51:56;12.70;99.90
5846;DHT22;2949;50.778;7.094;2022-09-20T18:54:22;12.60;99.90
5846;DHT22;2949;50.778;7.094;2022-09-20T18:56:49;12.50;99.90
5846;DHT22;2949;50.778;7.094;2022-09-20T18:59:22;12.40;99.90
5846;DHT22;2949;50.778;7.094;2022-09-20T19:07:19;12.20;99.90
5846;DHT22;2949;50.778;7.094;2022-09-20T19:09:55;12.20;99.90
5846;DHT22;2949;50.778;7.094;2022-09-20T19:17:59;11.90;99.90
5846;DHT22;2949;50.778;7.094;2022-09-20T19:20:35;11.80;99.90
5846;DHT22;2949;50.778;7.094;2022-09-20T19:23:09;11.70;99.90
5846;DHT22;2949;50.778;7.094;2022-09-20T19:25:41;11.60;99.90
5846;DHT22;2949;50.778;7.094;2022-09-20T19:28:11;11.50;99.90
5846;DHT22;2949;50.778;7.094;2022-09-20T19:30:37;11.30;99.90
5846;DHT22;2949;50.778;7.094;2022-09-20T19:33:07;11.30;99.90
5846;DHT22;2949;50.778;7.094;2022-09-20T19:35:39;11.20;99.90
5846;DHT22;2949;50.778;7.094;2022-09-20T19:38:25;11.10;99.90
5846;DHT22;2949;50.778;7.094;2022-09-20T19:40:57;11.10;99.90
5846;DHT22;2949;50.778;7.094;2022-09-20T19:43:44;11.00;99.90
5846;DHT22;2949;50.778;7.094;2022-09-20T19:49:05;10.90;99.90
5846;DHT22;2949;50.778;7.094;2022-09-20T19:51:34;10.90;99.90
5846;DHT22;2949;50.778;7.094;2022-09-20T19:54:01;10.90;99.90
5846;DHT22;2949;50.778;7.094;2022-09-20T19:56:27;10.90;99.90
5846;DHT22;2949;50.778;7.094;2022-09-20T19:59:00;11.00;99.90
5846;DHT22;2949;50.778;7.094;2022-09-20T20:01:25;11.10;99.90
5846;DHT22;2949;50.778;7.094;2022-09-20T20:03:53;11.20;99.90
5846;DHT22;2949;50.778;7.094;2022-09-20T20:06:51;11.30;99.90
5846;DHT22;2949;50.778;7.094;2022-09-20T20:12:16;11.40;99.90
5846;DHT22;2949;50.778;7.094;2022-09-20T20:14:52;11.50;99.90
5846;DHT22;2949;50.778;7.094;2022-09-20T20:20:34;11.50;99.90
5846;DHT22;2949;50.778;7.094;2022-09-20T20:26:19;11.40;99.90
5846;DHT22;2949;50.778;7.094;2022-09-20T20:28:45;11.40;99.90
5846;DHT22;2949;50.778;7.094;2022-09-20T20:31:11;11.30;99.90
5846;DHT22;2949;50.778;7.094;2022-09-20T20:33:37;11.20;99.90
5846;DHT22;2949;50.778;7.094;2022-09-20T20:36:03;11.20;99.90
5846;DHT22;2949;50.778;7.094;2022-09-20T20:38:34;11.20;99.90
5846;DHT22;2949;50.778;7.094;2022-09-20T20:43:40;11.00;99.90
5846;DHT22;2949;50.778;7.094;2022-09-20T20:46:08;11.00;99.90
5846;DHT22;2949;50.778;7.094;2022-09-20T20:48:35;10.90;99.90
5846;DHT22;2949;50.778;7.094;2022-09-20T20:51:03;10.90;99.90
5846;DHT22;2949;50.778;7.094;2022-09-20T20:53:31;10.80;99.90
5846;DHT22;2949;50.778;7.094;2022-09-20T20:56:02;10.80;99.90
5846;DHT22;2949;50.778;7.094;2022-09-20T20:58:29;10.70;99.90